Snow/Ice From: 16-12-2017 16:00 Until: 17-12-2017 16:00 warning for: Snow/Ice Level: Yellow info button

Although rather usual in this region, locally or potentially dangerous phenomena are expected. (such as local winds, summer thunderstorms, rising streams or high waves) Be aware and pay attention to the latest weather updates, especially if you carry out activities exposed to weather or close to a stream or shoreline. 


Meteo18 Weather Cam more information Meteo18 Weather Cam


Thunder radar more information blitzortung!


warning for Snow/Ice more information rain snow radar


Visit our other weather sites:

Template documentation
and downloads

And another site



Weather Underground History page Text

Daily Summary for November 14, 2016 Units:  Metric    English   Both
« Previous Day
Next Day »
Daily Weekly Monthly Yearly Custom
  High: Low: Average:
Temperature: 8.1 °C 4.2 °C 5.6 °C
Dew Point: 7.2 °C 3.1 °C 4.4 °C
Humidity: 96 % 88 % 92 %
Wind Speed: 20.9 km/h 0.0 km/h 3.4 km/h
Wind Gust: 27.4 km/h - -
Wind:- - SE
Pressure: 1034.1 hPa 1028.0 hPa -
Precipitation: 0.5 mm    
Historical Graphs
 
 
Tabular Data for November 14, 2016
Time Temperature Dew Point Pressure Wind Wind Speed Wind Gust Humidity Rainfall Rate (Hourly)
00:07 8.1 °C 7.2 °C 1028.0 hPa NNE 9.7 km/h 16.1 km/h 94 % 0.0 mm
00:12 8.0 °C 7.1 °C 1028.0 hPa NW 8.0 km/h 16.1 km/h 94 % 0.0 mm
00:17 8.0 °C 7.1 °C 1028.0 hPa NNW 9.7 km/h 16.1 km/h 94 % 0.0 mm
00:22 8.0 °C 7.1 °C 1028.0 hPa North 9.7 km/h 17.7 km/h 94 % 0.0 mm
00:32 8.0 °C 7.1 °C 1028.0 hPa NNW 8.0 km/h 17.7 km/h 94 % 0.0 mm
00:37 8.1 °C 7.2 °C 1028.0 hPa NE 9.7 km/h 17.7 km/h 94 % 0.0 mm
00:42 8.1 °C 7.2 °C 1028.0 hPa NE 8.0 km/h 16.1 km/h 94 % 0.0 mm
00:52 8.0 °C 7.1 °C 1028.0 hPa North 9.7 km/h 19.3 km/h 94 % 0.0 mm
00:57 8.0 °C 7.1 °C 1028.0 hPa NNW 8.0 km/h 19.3 km/h 94 % 0.0 mm
01:07 7.9 °C 7.1 °C 1028.0 hPa North 8.0 km/h 12.9 km/h 95 % 0.0 mm
01:12 7.9 °C 7.1 °C 1028.3 hPa NE 1.6 km/h 12.9 km/h 95 % 0.0 mm
01:17 7.9 °C 7.1 °C 1028.3 hPa NNE 6.4 km/h 11.3 km/h 95 % 0.0 mm
01:22 7.9 °C 7.1 °C 1028.3 hPa North 8.0 km/h 11.3 km/h 95 % 0.0 mm
01:32 7.8 °C 7.0 °C 1028.3 hPa North 8.0 km/h 14.5 km/h 95 % 0.3 mm
01:37 7.7 °C 6.9 °C 1028.3 hPa North 4.8 km/h 19.3 km/h 95 % 0.5 mm
01:42 7.7 °C 7.1 °C 1028.3 hPa NNE 11.3 km/h 19.3 km/h 96 % 0.5 mm
01:52 7.6 °C 7.0 °C 1028.3 hPa NE 4.8 km/h 17.7 km/h 96 % 0.5 mm
02:02 7.5 °C 6.9 °C 1028.7 hPa NNE 1.6 km/h 14.5 km/h 96 % 0.5 mm
02:07 7.4 °C 6.8 °C 1028.7 hPa NNE 4.8 km/h 19.3 km/h 96 % 0.5 mm
02:12 7.4 °C 6.7 °C 1028.3 hPa North 3.2 km/h 19.3 km/h 95 % 0.5 mm
02:17 7.3 °C 6.6 °C 1028.7 hPa NE 4.8 km/h 19.3 km/h 95 % 0.5 mm
02:22 7.3 °C 6.6 °C 1028.7 hPa NE 6.4 km/h 16.1 km/h 95 % 0.5 mm
02:27 7.3 °C 6.6 °C 1028.7 hPa NNW 3.2 km/h 16.1 km/h 95 % 0.3 mm
02:32 7.2 °C 6.5 °C 1028.7 hPa NE 4.8 km/h 14.5 km/h 95 % 0.3 mm
02:37 7.2 °C 6.5 °C 1028.7 hPa North 3.2 km/h 14.5 km/h 95 % 0.0 mm
02:42 7.1 °C 6.4 °C 1028.7 hPa NE 6.4 km/h 14.5 km/h 95 % 0.0 mm
02:47 7.1 °C 6.4 °C 1028.7 hPa NW 3.2 km/h 16.1 km/h 95 % 0.0 mm
02:52 7.1 °C 6.4 °C 1028.7 hPa NNE 1.6 km/h 16.1 km/h 95 % 0.0 mm
03:02 7.1 °C 6.4 °C 1029.0 hPa NNW 1.6 km/h 12.9 km/h 95 % 0.0 mm
03:07 7.0 °C 6.3 °C 1029.0 hPa NNW 3.2 km/h 11.3 km/h 95 % 0.0 mm
03:12 7.0 °C 6.3 °C 1029.0 hPa North 4.8 km/h 16.1 km/h 95 % 0.0 mm
03:22 6.9 °C 6.0 °C 1029.3 hPa ENE 6.4 km/h 20.9 km/h 94 % 0.0 mm
03:32 6.8 °C 5.7 °C 1029.3 hPa NNW 6.4 km/h 27.4 km/h 93 % 0.0 mm
03:37 6.7 °C 5.5 °C 1029.3 hPa NE 16.1 km/h 27.4 km/h 92 % 0.0 mm
03:42 6.6 °C 5.4 °C 1029.3 hPa NNW 6.4 km/h 27.4 km/h 92 % 0.0 mm
03:47 6.6 °C 5.4 °C 1029.3 hPa NE 20.9 km/h 20.9 km/h 92 % 0.0 mm
03:52 6.5 °C 5.3 °C 1029.3 hPa NNE 12.9 km/h 20.9 km/h 92 % 0.0 mm
03:57 6.4 °C 5.4 °C 1029.3 hPa NNW 4.8 km/h 20.9 km/h 93 % 0.0 mm
04:02 6.4 °C 5.4 °C 1029.3 hPa NNW 8.0 km/h 20.9 km/h 93 % 0.0 mm
04:12 6.2 °C 5.2 °C 1029.3 hPa NNW 4.8 km/h 16.1 km/h 93 % 0.0 mm
04:17 6.1 °C 5.1 °C 1029.3 hPa North 3.2 km/h 14.5 km/h 93 % 0.0 mm
04:22 6.0 °C 5.0 °C 1029.3 hPa NNW 3.2 km/h 14.5 km/h 93 % 0.0 mm
04:27 5.9 °C 4.9 °C 1029.3 hPa North 4.8 km/h 11.3 km/h 93 % 0.0 mm
04:37 5.7 °C 4.7 °C 1029.3 hPa North 8.0 km/h 12.9 km/h 93 % 0.0 mm
04:42 5.7 °C 4.8 °C 1029.7 hPa North 9.7 km/h 16.1 km/h 94 % 0.0 mm
04:47 5.8 °C 4.9 °C 1029.3 hPa NNW 6.4 km/h 17.7 km/h 94 % 0.0 mm
04:52 5.8 °C 4.9 °C 1029.7 hPa NW 8.0 km/h 17.7 km/h 94 % 0.0 mm
04:57 5.8 °C 4.9 °C 1029.7 hPa NNW 3.2 km/h 17.7 km/h 94 % 0.0 mm
05:02 5.8 °C 4.9 °C 1029.7 hPa NNE 4.8 km/h 17.7 km/h 94 % 0.0 mm
05:12 5.7 °C 4.8 °C 1029.7 hPa NNW 1.6 km/h 12.9 km/h 94 % 0.0 mm
05:17 5.7 °C 4.8 °C 1029.7 hPa WNW 3.2 km/h 12.9 km/h 94 % 0.0 mm
05:22 5.6 °C 4.7 °C 1029.7 hPa NE 4.8 km/h 12.9 km/h 94 % 0.0 mm
05:27 5.6 °C 4.7 °C 1029.7 hPa NNW 4.8 km/h 11.3 km/h 94 % 0.0 mm
05:32 5.6 °C 4.7 °C 1029.7 hPa NE 1.6 km/h 11.3 km/h 94 % 0.0 mm
05:42 5.4 °C 4.5 °C 1030.0 hPa NNE 6.4 km/h 12.9 km/h 94 % 0.0 mm
05:47 5.4 °C 4.5 °C 1030.0 hPa NE 6.4 km/h 11.3 km/h 94 % 0.0 mm
05:57 5.5 °C 4.6 °C 1030.4 hPa NNE 3.2 km/h 11.3 km/h 94 % 0.0 mm
06:02 5.5 °C 4.6 °C 1030.4 hPa NE 6.4 km/h 11.3 km/h 94 % 0.0 mm
06:12 5.6 °C 4.7 °C 1030.4 hPa North 6.4 km/h 11.3 km/h 94 % 0.0 mm
06:17 5.6 °C 4.9 °C 1030.4 hPa ENE 3.2 km/h 12.9 km/h 95 % 0.0 mm
06:22 5.6 °C 4.9 °C 1030.4 hPa West 1.6 km/h 12.9 km/h 95 % 0.0 mm
06:27 5.6 °C 4.9 °C 1030.4 hPa NW 1.6 km/h 12.9 km/h 95 % 0.0 mm
06:32 5.6 °C 4.9 °C 1030.4 hPa NE 3.2 km/h 11.3 km/h 95 % 0.0 mm
06:42 5.6 °C 4.7 °C 1030.4 hPa NNE 4.8 km/h 16.1 km/h 94 % 0.0 mm
06:47 5.7 °C 4.8 °C 1030.4 hPa NNE 8.0 km/h 16.1 km/h 94 % 0.0 mm
06:52 5.7 °C 4.8 °C 1030.4 hPa North 3.2 km/h 16.1 km/h 94 % 0.0 mm
06:57 5.7 °C 4.8 °C 1030.4 hPa Calm   16.1 km/h 94 % 0.0 mm
07:02 5.7 °C 4.8 °C 1030.7 hPa North 3.2 km/h 11.3 km/h 94 % 0.0 mm
07:07 5.7 °C 4.8 °C 1030.7 hPa NNW 1.6 km/h 11.3 km/h 94 % 0.0 mm
07:12 5.7 °C 4.8 °C 1030.7 hPa NNE 1.6 km/h 9.7 km/h 94 % 0.0 mm
07:17 5.7 °C 4.8 °C 1030.7 hPa Calm   9.7 km/h 94 % 0.0 mm
07:27 5.7 °C 4.8 °C 1031.0 hPa NNE 1.6 km/h 6.4 km/h 94 % 0.0 mm
07:32 5.7 °C 4.8 °C 1031.0 hPa NNW 3.2 km/h 11.3 km/h 94 % 0.0 mm
07:37 5.7 °C 4.8 °C 1031.0 hPa North 3.2 km/h 11.3 km/h 94 % 0.0 mm
07:47 5.6 °C 4.7 °C 1031.0 hPa NNE 3.2 km/h 6.4 km/h 94 % 0.0 mm
07:52 5.7 °C 4.8 °C 1031.4 hPa Calm   8.0 km/h 94 % 0.0 mm
07:57 5.7 °C 4.8 °C 1031.4 hPa NNW 3.2 km/h 8.0 km/h 94 % 0.0 mm
08:02 5.6 °C 4.6 °C 1031.4 hPa Calm   12.9 km/h 93 % 0.0 mm
08:12 5.7 °C 4.5 °C 1031.4 hPa NNW 1.6 km/h 14.5 km/h 92 % 0.0 mm
08:17 5.8 °C 4.8 °C 1031.7 hPa North 6.4 km/h 14.5 km/h 93 % 0.0 mm
08:22 5.7 °C 4.7 °C 1031.7 hPa North 3.2 km/h 12.9 km/h 93 % 0.0 mm
08:32 5.7 °C 4.5 °C 1031.7 hPa Calm   8.0 km/h 92 % 0.0 mm
08:42 5.7 °C 4.5 °C 1032.1 hPa North 1.6 km/h 9.7 km/h 92 % 0.0 mm
08:52 5.8 °C 4.6 °C 1032.1 hPa NNE 3.2 km/h 9.7 km/h 92 % 0.0 mm
08:57 5.8 °C 4.6 °C 1032.1 hPa NE 6.4 km/h 9.7 km/h 92 % 0.0 mm
09:02 5.8 °C 4.6 °C 1032.1 hPa NNW 3.2 km/h 9.7 km/h 92 % 0.0 mm
09:12 5.8 °C 4.8 °C 1032.4 hPa North 8.0 km/h 14.5 km/h 93 % 0.0 mm
09:22 5.8 °C 4.8 °C 1032.4 hPa NNE 3.2 km/h 16.1 km/h 93 % 0.0 mm
09:27 5.7 °C 4.7 °C 1032.4 hPa NE 8.0 km/h 12.9 km/h 93 % 0.0 mm
09:32 5.7 °C 4.7 °C 1032.4 hPa NE 1.6 km/h 12.9 km/h 93 % 0.0 mm
09:37 5.7 °C 4.5 °C 1032.4 hPa NE 12.9 km/h 14.5 km/h 92 % 0.0 mm
09:42 5.7 °C 4.5 °C 1032.4 hPa NE 3.2 km/h 17.7 km/h 92 % 0.0 mm
09:47 5.6 °C 4.2 °C 1032.4 hPa NNE 16.1 km/h 17.7 km/h 91 % 0.0 mm
09:52 5.6 °C 4.2 °C 1032.4 hPa NE 8.0 km/h 17.7 km/h 91 % 0.0 mm
09:57 5.6 °C 4.2 °C 1032.4 hPa ENE 3.2 km/h 17.7 km/h 91 % 0.0 mm
10:02 5.6 °C 4.2 °C 1032.4 hPa NE 6.4 km/h 17.7 km/h 91 % 0.0 mm
10:12 5.6 °C 4.4 °C 1032.7 hPa NNE 4.8 km/h 16.1 km/h 92 % 0.0 mm
10:17 5.5 °C 4.3 °C 1032.7 hPa North 8.0 km/h 14.5 km/h 92 % 0.0 mm
10:22 5.6 °C 4.4 °C 1032.7 hPa ENE 11.3 km/h 14.5 km/h 92 % 0.0 mm
10:27 5.4 °C 4.2 °C 1032.7 hPa NE 6.4 km/h 12.9 km/h 92 % 0.0 mm
10:32 5.3 °C 4.3 °C 1032.7 hPa NE 4.8 km/h 12.9 km/h 93 % 0.0 mm
10:37 5.2 °C 4.2 °C 1033.1 hPa NE 6.4 km/h 12.9 km/h 93 % 0.0 mm
10:42 5.2 °C 4.2 °C 1033.1 hPa NE 6.4 km/h 12.9 km/h 93 % 0.0 mm
10:52 5.1 °C 4.1 °C 1033.1 hPa NE 8.0 km/h 11.3 km/h 93 % 0.0 mm
10:57 5.1 °C 4.1 °C 1033.1 hPa NE 3.2 km/h 11.3 km/h 93 % 0.0 mm
11:02 5.1 °C 3.9 °C 1033.1 hPa NE 11.3 km/h 11.3 km/h 92 % 0.0 mm
11:07 5.1 °C 3.9 °C 1033.4 hPa NE 8.0 km/h 12.9 km/h 92 % 0.0 mm
11:12 5.1 °C 3.8 °C 1033.4 hPa NNE 6.4 km/h 12.9 km/h 91 % 0.0 mm
11:17 5.1 °C 3.8 °C 1033.4 hPa NE 3.2 km/h 14.5 km/h 91 % 0.0 mm
11:22 5.2 °C 3.9 °C 1033.4 hPa NE 4.8 km/h 14.5 km/h 91 % 0.0 mm
11:32 5.3 °C 4.1 °C 1033.4 hPa NNW 3.2 km/h 14.5 km/h 92 % 0.0 mm
11:42 5.4 °C 4.0 °C 1033.4 hPa Calm   12.9 km/h 91 % 0.0 mm
11:47 5.4 °C 4.0 °C 1033.4 hPa NNE 1.6 km/h 12.9 km/h 91 % 0.0 mm
11:57 5.5 °C 3.8 °C 1033.4 hPa NNE 6.4 km/h 11.3 km/h 89 % 0.0 mm
12:02 5.6 °C 3.9 °C 1033.4 hPa NE 1.6 km/h 9.7 km/h 89 % 0.0 mm
12:12 5.6 °C 3.8 °C 1033.1 hPa NNE 8.0 km/h 9.7 km/h 88 % 0.0 mm
12:17 5.6 °C 3.9 °C 1033.4 hPa Calm   9.7 km/h 89 % 0.0 mm
12:22 5.6 °C 3.8 °C 1033.4 hPa NNW 4.8 km/h 11.3 km/h 88 % 0.0 mm
12:32 5.6 °C 3.9 °C 1033.1 hPa NNE 4.8 km/h 12.9 km/h 89 % 0.0 mm
12:42 5.6 °C 3.8 °C 1033.1 hPa North 6.4 km/h 12.9 km/h 88 % 0.0 mm
12:52 5.6 °C 3.8 °C 1033.1 hPa Calm   11.3 km/h 88 % 0.0 mm
12:57 5.5 °C 3.7 °C 1033.1 hPa NW 3.2 km/h 11.3 km/h 88 % 0.0 mm
13:07 5.5 °C 3.8 °C 1033.1 hPa North 1.6 km/h 11.3 km/h 89 % 0.0 mm
13:12 5.5 °C 3.7 °C 1033.1 hPa NNE 4.8 km/h 11.3 km/h 88 % 0.0 mm
13:22 5.4 °C 3.6 °C 1033.1 hPa Calm   9.7 km/h 88 % 0.0 mm
13:27 5.5 °C 3.7 °C 1033.1 hPa NNE 6.4 km/h 9.7 km/h 88 % 0.0 mm
13:32 5.5 °C 3.7 °C 1033.1 hPa NNW 1.6 km/h 8.0 km/h 88 % 0.0 mm
13:37 5.5 °C 3.7 °C 1033.1 hPa North 1.6 km/h 8.0 km/h 88 % 0.0 mm
13:42 5.6 °C 3.8 °C 1033.1 hPa NNE 6.4 km/h 8.0 km/h 88 % 0.0 mm
13:47 5.5 °C 3.7 °C 1033.1 hPa East 3.2 km/h 12.9 km/h 88 % 0.0 mm
13:52 5.4 °C 3.6 °C 1033.1 hPa NE 4.8 km/h 12.9 km/h 88 % 0.0 mm
13:57 5.4 °C 3.6 °C 1033.1 hPa NNE 6.4 km/h 12.9 km/h 88 % 0.0 mm
14:02 5.3 °C 3.5 °C 1033.4 hPa North 1.6 km/h 14.5 km/h 88 % 0.0 mm
14:07 5.4 °C 3.7 °C 1033.4 hPa North 1.6 km/h 14.5 km/h 89 % 0.0 mm
14:12 5.4 °C 3.7 °C 1033.4 hPa NE 1.6 km/h 14.5 km/h 89 % 0.0 mm
14:17 5.4 °C 3.6 °C 1033.4 hPa NE 6.4 km/h 9.7 km/h 88 % 0.0 mm
14:22 5.3 °C 3.6 °C 1033.4 hPa Calm   11.3 km/h 89 % 0.0 mm
14:27 5.4 °C 3.7 °C 1033.4 hPa NNE 3.2 km/h 11.3 km/h 89 % 0.0 mm
14:32 5.3 °C 3.6 °C 1033.4 hPa NNE 1.6 km/h 11.3 km/h 89 % 0.0 mm
14:42 5.3 °C 3.6 °C 1033.4 hPa ENE 1.6 km/h 8.0 km/h 89 % 0.0 mm
14:47 5.3 °C 3.6 °C 1033.4 hPa NE 3.2 km/h 11.3 km/h 89 % 0.0 mm
14:52 5.3 °C 3.6 °C 1033.4 hPa NE 1.6 km/h 11.3 km/h 89 % 0.0 mm
14:57 5.4 °C 3.9 °C 1033.4 hPa NNE 6.4 km/h 11.3 km/h 90 % 0.0 mm
15:12 5.4 °C 3.7 °C 1033.1 hPa NNE 4.8 km/h 6.4 km/h 89 % 0.0 mm
15:17 5.4 °C 3.7 °C 1033.1 hPa NNE 6.4 km/h 8.0 km/h 89 % 0.0 mm
15:22 5.4 °C 3.7 °C 1033.1 hPa NNW 1.6 km/h 8.0 km/h 89 % 0.0 mm
15:27 5.4 °C 3.9 °C 1033.1 hPa Calm   8.0 km/h 90 % 0.0 mm
15:32 5.4 °C 3.9 °C 1033.1 hPa NE 3.2 km/h 6.4 km/h 90 % 0.0 mm
15:37 5.4 °C 3.9 °C 1033.1 hPa NE 3.2 km/h 6.4 km/h 90 % 0.0 mm
15:42 5.4 °C 3.9 °C 1033.1 hPa Calm   6.4 km/h 90 % 0.0 mm
15:47 5.4 °C 3.9 °C 1033.1 hPa NE 1.6 km/h 6.4 km/h 90 % 0.0 mm
15:52 5.4 °C 3.9 °C 1033.1 hPa NNE 1.6 km/h 9.7 km/h 90 % 0.0 mm
16:02 5.4 °C 3.7 °C 1033.1 hPa Calm   9.7 km/h 89 % 0.0 mm
16:07 5.4 °C 3.7 °C 1033.1 hPa NE 6.4 km/h 6.4 km/h 89 % 0.0 mm
16:17 5.4 °C 3.7 °C 1033.1 hPa NNE 4.8 km/h 8.0 km/h 89 % 0.0 mm
16:22 5.4 °C 3.6 °C 1033.1 hPa ENE 1.6 km/h 9.7 km/h 88 % 0.0 mm
16:27 5.4 °C 3.6 °C 1033.1 hPa NE 6.4 km/h 9.7 km/h 88 % 0.0 mm
16:32 5.3 °C 3.5 °C 1033.1 hPa NE 3.2 km/h 9.7 km/h 88 % 0.0 mm
16:37 5.3 °C 3.6 °C 1033.1 hPa NE 4.8 km/h 6.4 km/h 89 % 0.0 mm
16:42 5.3 °C 3.5 °C 1033.1 hPa Calm   6.4 km/h 88 % 0.0 mm
16:47 5.3 °C 3.5 °C 1033.1 hPa Calm   4.8 km/h 88 % 0.0 mm
16:57 5.3 °C 3.5 °C 1033.1 hPa Calm   1.6 km/h 88 % 0.0 mm
17:02 5.3 °C 3.6 °C 1033.1 hPa Calm   3.2 km/h 89 % 0.0 mm
17:07 5.3 °C 3.6 °C 1033.1 hPa ENE 1.6 km/h 3.2 km/h 89 % 0.0 mm
17:12 5.3 °C 3.6 °C 1033.1 hPa ENE 1.6 km/h 3.2 km/h 89 % 0.0 mm
17:17 5.2 °C 3.5 °C 1033.1 hPa NE 1.6 km/h 6.4 km/h 89 % 0.0 mm
17:22 5.2 °C 3.5 °C 1033.1 hPa NNE 1.6 km/h 6.4 km/h 89 % 0.0 mm
17:27 5.2 °C 3.7 °C 1033.4 hPa Calm   6.4 km/h 90 % 0.0 mm
17:37 5.2 °C 3.7 °C 1033.4 hPa Calm   4.8 km/h 90 % 0.0 mm
17:42 5.2 °C 3.7 °C 1033.4 hPa NW 3.2 km/h 4.8 km/h 90 % 0.0 mm
17:47 5.2 °C 3.7 °C 1033.4 hPa NNE 1.6 km/h 4.8 km/h 90 % 0.0 mm
17:52 5.1 °C 3.6 °C 1033.4 hPa NNW 1.6 km/h 3.2 km/h 90 % 0.0 mm
17:57 5.1 °C 3.6 °C 1033.4 hPa Calm   3.2 km/h 90 % 0.0 mm
18:02 5.1 °C 3.6 °C 1033.4 hPa Calm   1.6 km/h 90 % 0.0 mm
18:07 5.1 °C 3.6 °C 1033.4 hPa Calm   1.6 km/h 90 % 0.0 mm
18:12 5.1 °C 3.6 °C 1033.4 hPa NW 1.6 km/h 1.6 km/h 90 % 0.0 mm
18:17 5.1 °C 3.6 °C 1033.4 hPa Calm   1.6 km/h 90 % 0.0 mm
18:22 5.1 °C 3.6 °C 1033.4 hPa NNW 1.6 km/h 3.2 km/h 90 % 0.0 mm
18:32 5.1 °C 3.8 °C 1033.4 hPa NW 1.6 km/h 3.2 km/h 91 % 0.0 mm
18:37 5.0 °C 3.3 °C 1033.4 hPa WNW 1.6 km/h 3.2 km/h 89 % 0.0 mm
18:57 5.0 °C 3.3 °C 1033.4 hPa Calm   8.0 km/h 89 % 0.0 mm
19:07 5.0 °C 3.5 °C 1033.7 hPa Calm   1.6 km/h 90 % 0.0 mm
19:12 5.0 °C 3.5 °C 1033.7 hPa Calm   3.2 km/h 90 % 0.0 mm
19:17 5.0 °C 3.5 °C 1033.7 hPa North 1.6 km/h 3.2 km/h 90 % 0.0 mm
19:22 4.9 °C 3.4 °C 1033.7 hPa Calm   3.2 km/h 90 % 0.0 mm
19:32 4.9 °C 3.4 °C 1033.7 hPa Calm   4.8 km/h 90 % 0.0 mm
19:37 4.8 °C 3.3 °C 1033.7 hPa Calm   4.8 km/h 90 % 0.0 mm
19:42 4.8 °C 3.3 °C 1033.4 hPa Calm   4.8 km/h 90 % 0.0 mm
19:47 4.8 °C 3.3 °C 1033.4 hPa Calm   3.2 km/h 90 % 0.0 mm
19:52 4.8 °C 3.3 °C 1033.7 hPa Calm   4.8 km/h 90 % 0.0 mm
19:57 4.8 °C 3.3 °C 1033.7 hPa ENE 1.6 km/h 4.8 km/h 90 % 0.0 mm
20:07 4.8 °C 3.3 °C 1033.7 hPa Calm   6.4 km/h 90 % 0.0 mm
20:12 4.8 °C 3.3 °C 1033.7 hPa Calm   6.4 km/h 90 % 0.0 mm
20:17 4.7 °C 3.2 °C 1033.7 hPa Calm   3.2 km/h 90 % 0.0 mm
20:22 4.7 °C 3.2 °C 1033.7 hPa Calm   3.2 km/h 90 % 0.0 mm
20:27 4.7 °C 3.2 °C 1033.7 hPa Calm   3.2 km/h 90 % 0.0 mm
20:37 4.7 °C 3.2 °C 1033.7 hPa Calm     90 % 0.0 mm
20:42 4.7 °C 3.2 °C 1033.7 hPa Calm     90 % 0.0 mm
20:47 4.7 °C 3.2 °C 1033.7 hPa Calm     90 % 0.0 mm
20:52 4.7 °C 3.2 °C 1033.7 hPa Calm     90 % 0.0 mm
21:02 4.7 °C 3.2 °C 1033.7 hPa Calm   1.6 km/h 90 % 0.0 mm
21:12 4.7 °C 3.2 °C 1033.7 hPa Calm   1.6 km/h 90 % 0.0 mm
21:22 4.7 °C 3.2 °C 1033.7 hPa Calm     90 % 0.0 mm
21:27 4.6 °C 3.3 °C 1033.7 hPa Calm     91 % 0.0 mm
21:32 4.7 °C 3.4 °C 1033.7 hPa Calm     91 % 0.0 mm
21:37 4.6 °C 3.3 °C 1034.1 hPa Calm     91 % 0.0 mm
21:47 4.6 °C 3.3 °C 1033.7 hPa Calm     91 % 0.0 mm
21:52 4.6 °C 3.3 °C 1034.1 hPa Calm     91 % 0.0 mm
21:57 4.6 °C 3.3 °C 1034.1 hPa Calm     91 % 0.0 mm
22:02 4.6 °C 3.3 °C 1034.1 hPa Calm     91 % 0.0 mm
22:07 4.6 °C 3.3 °C 1034.1 hPa Calm     91 % 0.0 mm
22:17 4.6 °C 3.4 °C 1033.7 hPa Calm     92 % 0.0 mm
22:22 4.5 °C 3.3 °C 1033.7 hPa Calm     92 % 0.0 mm
22:27 4.5 °C 3.3 °C 1033.7 hPa Calm     92 % 0.0 mm
22:32 4.5 °C 3.3 °C 1033.7 hPa Calm     92 % 0.0 mm
22:37 4.4 °C 3.2 °C 1033.7 hPa Calm     92 % 0.0 mm
22:42 4.4 °C 3.2 °C 1034.1 hPa Calm     92 % 0.0 mm
22:47 4.4 °C 3.2 °C 1034.1 hPa Calm     92 % 0.0 mm
22:52 4.4 °C 3.2 °C 1033.7 hPa Calm     92 % 0.0 mm
22:57 4.4 °C 3.2 °C 1033.7 hPa Calm     92 % 0.0 mm
23:02 4.4 °C 3.2 °C 1033.7 hPa Calm     92 % 0.0 mm
23:07 4.4 °C 3.2 °C 1034.1 hPa Calm     92 % 0.0 mm
23:12 4.4 °C 3.2 °C 1034.1 hPa Calm     92 % 0.0 mm
23:17 4.4 °C 3.2 °C 1034.1 hPa Calm     92 % 0.0 mm
23:27 4.3 °C 3.1 °C 1033.7 hPa Calm     92 % 0.0 mm
23:32 4.3 °C 3.3 °C 1033.7 hPa Calm     93 % 0.0 mm
23:37 4.3 °C 3.3 °C 1033.7 hPa Calm     93 % 0.0 mm
23:42 4.3 °C 3.3 °C 1033.7 hPa Calm     93 % 0.0 mm
23:47 4.3 °C 3.3 °C 1033.7 hPa Calm     93 % 0.0 mm
23:57 4.2 °C 3.2 °C 1033.7 hPa Calm     93 % 0.0 mm
Meteo18
Compliments of Weather Underground - 4 mb

Script developed by  Jim McMurry - jmcmurry@mwt.net Adapted for the template by  Wim van der Kuil - Leuven-Template.eu

You find our weather info also at:

European Weather Network

Weather Underground

Equipment we use:

Weather-station
Davis Vue

Weather-program
Meteohub

Weather-server
Raspberry PI 2 B+

Provider
1 and 1

Davis Vue

Meteohub

Raspberry PI 2 B+

1 and 1